sensor_id;sensor_type;location;lat;lon;timestamp;P1;durP1;ratioP1;P2;durP2;ratioP2
52432;SDS011;38352;53.244;6.594;2024-02-16T00:01:07;0.22;;;0.22;;
52432;SDS011;38352;53.244;6.594;2024-02-16T00:03:33;0.00;;;0.00;;
52432;SDS011;38352;53.244;6.594;2024-02-16T00:05:59;0.68;;;0.68;;
52432;SDS011;38352;53.244;6.594;2024-02-16T00:08:25;0.10;;;0.10;;
52432;SDS011;38352;53.244;6.594;2024-02-16T00:10:51;0.55;;;0.55;;
52432;SDS011;38352;53.244;6.594;2024-02-16T00:13:18;0.10;;;0.10;;
52432;SDS011;38352;53.244;6.594;2024-02-16T00:15:44;0.75;;;0.38;;
52432;SDS011;38352;53.244;6.594;2024-02-16T00:18:10;0.00;;;0.00;;
52432;SDS011;38352;53.244;6.594;2024-02-16T00:20:37;0.00;;;0.00;;
52432;SDS011;38352;53.244;6.594;2024-02-16T00:23:04;0.38;;;0.32;;
52432;SDS011;38352;53.244;6.594;2024-02-16T00:25:30;0.03;;;0.03;;
52432;SDS011;38352;53.244;6.594;2024-02-16T00:27:56;0.00;;;0.00;;
52432;SDS011;38352;53.244;6.594;2024-02-16T00:30:22;0.17;;;0.17;;
52432;SDS011;38352;53.244;6.594;2024-02-16T00:32:49;0.00;;;0.00;;
52432;SDS011;38352;53.244;6.594;2024-02-16T00:35:15;0.28;;;0.28;;
52432;SDS011;38352;53.244;6.594;2024-02-16T00:37:43;0.03;;;0.03;;
52432;SDS011;38352;53.244;6.594;2024-02-16T00:40:10;0.15;;;0.15;;
52432;SDS011;38352;53.244;6.594;2024-02-16T00:42:37;0.70;;;0.70;;
52432;SDS011;38352;53.244;6.594;2024-02-16T00:45:03;0.00;;;0.00;;
52432;SDS011;38352;53.244;6.594;2024-02-16T00:47:30;0.10;;;0.10;;
52432;SDS011;38352;53.244;6.594;2024-02-16T00:49:56;0.15;;;0.15;;
52432;SDS011;38352;53.244;6.594;2024-02-16T00:52:22;0.13;;;0.13;;
52432;SDS011;38352;53.244;6.594;2024-02-16T00:54:48;0.00;;;0.00;;
52432;SDS011;38352;53.244;6.594;2024-02-16T00:57:15;0.00;;;0.00;;
52432;SDS011;38352;53.244;6.594;2024-02-16T00:59:41;0.08;;;0.08;;
52432;SDS011;38352;53.244;6.594;2024-02-16T01:02:07;0.00;;;0.00;;
52432;SDS011;38352;53.244;6.594;2024-02-16T01:04:35;0.17;;;0.17;;
52432;SDS011;38352;53.244;6.594;2024-02-16T01:07:01;0.45;;;0.45;;
52432;SDS011;38352;53.244;6.594;2024-02-16T01:09:28;0.00;;;0.00;;
52432;SDS011;38352;53.244;6.594;2024-02-16T01:11:54;0.10;;;0.10;;
52432;SDS011;38352;53.244;6.594;2024-02-16T01:14:20;0.05;;;0.05;;
52432;SDS011;38352;53.244;6.594;2024-02-16T01:16:46;0.00;;;0.00;;
52432;SDS011;38352;53.244;6.594;2024-02-16T01:19:12;0.47;;;0.47;;
52432;SDS011;38352;53.244;6.594;2024-02-16T01:21:38;0.65;;;0.45;;
52432;SDS011;38352;53.244;6.594;2024-02-16T01:24:05;0.10;;;0.10;;
52432;SDS011;38352;53.244;6.594;2024-02-16T01:26:31;0.10;;;0.10;;
52432;SDS011;38352;53.244;6.594;2024-02-16T01:28:58;0.00;;;0.00;;
52432;SDS011;38352;53.244;6.594;2024-02-16T01:31:24;0.00;;;0.00;;
52432;SDS011;38352;53.244;6.594;2024-02-16T01:33:51;0.00;;;0.00;;
52432;SDS011;38352;53.244;6.594;2024-02-16T01:36:18;0.13;;;0.13;;
52432;SDS011;38352;53.244;6.594;2024-02-16T01:38:44;0.00;;;0.00;;
52432;SDS011;38352;53.244;6.594;2024-02-16T01:41:10;0.00;;;0.00;;
52432;SDS011;38352;53.244;6.594;2024-02-16T01:43:37;0.10;;;0.10;;
52432;SDS011;38352;53.244;6.594;2024-02-16T01:46:03;4.38;;;2.22;;
52432;SDS011;38352;53.244;6.594;2024-02-16T01:48:30;0.03;;;0.03;;
52432;SDS011;38352;53.244;6.594;2024-02-16T01:50:56;0.00;;;0.00;;
52432;SDS011;38352;53.244;6.594;2024-02-16T01:53:23;0.22;;;0.20;;
52432;SDS011;38352;53.244;6.594;2024-02-16T01:55:49;1.10;;;0.38;;
52432;SDS011;38352;53.244;6.594;2024-02-16T01:58:16;0.00;;;0.00;;
52432;SDS011;38352;53.244;6.594;2024-02-16T02:00:42;0.00;;;0.00;;
52432;SDS011;38352;53.244;6.594;2024-02-16T02:03:08;1.75;;;0.38;;
52432;SDS011;38352;53.244;6.594;2024-02-16T02:05:42;0.98;;;0.30;;
52432;SDS011;38352;53.244;6.594;2024-02-16T02:08:10;0.38;;;0.38;;
52432;SDS011;38352;53.244;6.594;2024-02-16T02:10:36;0.13;;;0.08;;
52432;SDS011;38352;53.244;6.594;2024-02-16T02:13:02;0.43;;;0.40;;
52432;SDS011;38352;53.244;6.594;2024-02-16T02:15:28;0.10;;;0.10;;
52432;SDS011;38352;53.244;6.594;2024-02-16T02:17:54;0.20;;;0.20;;
52432;SDS011;38352;53.244;6.594;2024-02-16T02:20:20;0.63;;;0.63;;
52432;SDS011;38352;53.244;6.594;2024-02-16T02:22:46;0.10;;;0.10;;
52432;SDS011;38352;53.244;6.594;2024-02-16T02:25:12;0.00;;;0.00;;
52432;SDS011;38352;53.244;6.594;2024-02-16T02:27:38;0.90;;;0.65;;
52432;SDS011;38352;53.244;6.594;2024-02-16T02:30:05;1.35;;;1.08;;
52432;SDS011;38352;53.244;6.594;2024-02-16T02:32:31;0.00;;;0.00;;
52432;SDS011;38352;53.244;6.594;2024-02-16T02:34:57;0.10;;;0.10;;
52432;SDS011;38352;53.244;6.594;2024-02-16T02:37:23;0.00;;;0.00;;
52432;SDS011;38352;53.244;6.594;2024-02-16T02:39:49;0.80;;;0.80;;
52432;SDS011;38352;53.244;6.594;2024-02-16T02:42:16;0.55;;;0.17;;
52432;SDS011;38352;53.244;6.594;2024-02-16T02:44:42;0.17;;;0.10;;
52432;SDS011;38352;53.244;6.594;2024-02-16T02:47:15;1.20;;;0.63;;
52432;SDS011;38352;53.244;6.594;2024-02-16T02:49:41;0.00;;;0.00;;
52432;SDS011;38352;53.244;6.594;2024-02-16T02:52:08;0.17;;;0.17;;
52432;SDS011;38352;53.244;6.594;2024-02-16T02:54:36;0.22;;;0.22;;
52432;SDS011;38352;53.244;6.594;2024-02-16T02:57:02;1.10;;;0.55;;
52432;SDS011;38352;53.244;6.594;2024-02-16T02:59:29;0.00;;;0.00;;
52432;SDS011;38352;53.244;6.594;2024-02-16T03:01:55;0.00;;;0.00;;
52432;SDS011;38352;53.244;6.594;2024-02-16T03:04:21;4.00;;;0.43;;
52432;SDS011;38352;53.244;6.594;2024-02-16T03:06:47;0.10;;;0.10;;
52432;SDS011;38352;53.244;6.594;2024-02-16T03:09:13;1.67;;;0.43;;
52432;SDS011;38352;53.244;6.594;2024-02-16T03:11:40;0.10;;;0.10;;
52432;SDS011;38352;53.244;6.594;2024-02-16T03:14:06;0.17;;;0.17;;
52432;SDS011;38352;53.244;6.594;2024-02-16T03:16:33;0.25;;;0.20;;
52432;SDS011;38352;53.244;6.594;2024-02-16T03:18:59;0.10;;;0.10;;
52432;SDS011;38352;53.244;6.594;2024-02-16T03:21:25;0.55;;;0.55;;
52432;SDS011;38352;53.244;6.594;2024-02-16T03:23:52;0.00;;;0.00;;
52432;SDS011;38352;53.244;6.594;2024-02-16T03:26:19;0.10;;;0.10;;
52432;SDS011;38352;53.244;6.594;2024-02-16T03:28:48;0.00;;;0.00;;
52432;SDS011;38352;53.244;6.594;2024-02-16T03:31:18;0.80;;;0.20;;
52432;SDS011;38352;53.244;6.594;2024-02-16T03:33:45;0.00;;;0.00;;
52432;SDS011;38352;53.244;6.594;2024-02-16T03:36:11;2.25;;;0.90;;
52432;SDS011;38352;53.244;6.594;2024-02-16T03:38:41;0.00;;;0.00;;
52432;SDS011;38352;53.244;6.594;2024-02-16T03:41:08;0.65;;;0.65;;
52432;SDS011;38352;53.244;6.594;2024-02-16T03:43:34;0.00;;;0.00;;
52432;SDS011;38352;53.244;6.594;2024-02-16T03:46:01;3.00;;;0.45;;
52432;SDS011;38352;53.244;6.594;2024-02-16T03:48:27;0.10;;;0.10;;
52432;SDS011;38352;53.244;6.594;2024-02-16T03:50:53;7.00;;;4.43;;
52432;SDS011;38352;53.244;6.594;2024-02-16T03:53:19;9.88;;;4.10;;
52432;SDS011;38352;53.244;6.594;2024-02-16T03:55:45;9.32;;;4.55;;
52432;SDS011;38352;53.244;6.594;2024-02-16T03:58:11;10.15;;;4.53;;
52432;SDS011;38352;53.244;6.594;2024-02-16T04:00:37;11.30;;;3.97;;
52432;SDS011;38352;53.244;6.594;2024-02-16T04:03:04;9.20;;;4.78;;
52432;SDS011;38352;53.244;6.594;2024-02-16T04:05:30;8.32;;;4.10;;
52432;SDS011;38352;53.244;6.594;2024-02-16T04:07:58;8.27;;;3.95;;
52432;SDS011;38352;53.244;6.594;2024-02-16T04:10:27;8.35;;;3.92;;
52432;SDS011;38352;53.244;6.594;2024-02-16T04:12:53;10.07;;;4.20;;
52432;SDS011;38352;53.244;6.594;2024-02-16T04:15:19;10.23;;;4.13;;
52432;SDS011;38352;53.244;6.594;2024-02-16T04:17:45;9.13;;;4.95;;
52432;SDS011;38352;53.244;6.594;2024-02-16T04:20:12;8.20;;;4.15;;
52432;SDS011;38352;53.244;6.594;2024-02-16T04:22:38;8.90;;;4.20;;
52432;SDS011;38352;53.244;6.594;2024-02-16T04:25:04;6.90;;;3.92;;
52432;SDS011;38352;53.244;6.594;2024-02-16T04:27:30;10.10;;;4.45;;
52432;SDS011;38352;53.244;6.594;2024-02-16T04:29:56;7.65;;;4.30;;
52432;SDS011;38352;53.244;6.594;2024-02-16T04:32:22;7.68;;;3.97;;
52432;SDS011;38352;53.244;6.594;2024-02-16T04:34:51;8.13;;;4.13;;
52432;SDS011;38352;53.244;6.594;2024-02-16T04:37:18;6.70;;;4.15;;
52432;SDS011;38352;53.244;6.594;2024-02-16T04:39:44;7.85;;;4.28;;
52432;SDS011;38352;53.244;6.594;2024-02-16T04:42:10;8.02;;;4.18;;
52432;SDS011;38352;53.244;6.594;2024-02-16T04:44:39;9.65;;;3.95;;
52432;SDS011;38352;53.244;6.594;2024-02-16T04:47:05;7.13;;;4.13;;
52432;SDS011;38352;53.244;6.594;2024-02-16T04:49:32;10.05;;;4.30;;
52432;SDS011;38352;53.244;6.594;2024-02-16T04:52:00;8.02;;;3.78;;
52432;SDS011;38352;53.244;6.594;2024-02-16T04:54:26;8.75;;;4.10;;
52432;SDS011;38352;53.244;6.594;2024-02-16T04:56:52;9.35;;;3.90;;
52432;SDS011;38352;53.244;6.594;2024-02-16T04:59:19;8.75;;;3.85;;
52432;SDS011;38352;53.244;6.594;2024-02-16T05:01:45;9.50;;;3.90;;
52432;SDS011;38352;53.244;6.594;2024-02-16T05:04:12;8.70;;;4.22;;
52432;SDS011;38352;53.244;6.594;2024-02-16T05:06:39;6.78;;;3.60;;
52432;SDS011;38352;53.244;6.594;2024-02-16T05:09:05;10.63;;;4.45;;
52432;SDS011;38352;53.244;6.594;2024-02-16T05:11:32;6.70;;;3.83;;
52432;SDS011;38352;53.244;6.594;2024-02-16T05:14:01;8.32;;;4.28;;
52432;SDS011;38352;53.244;6.594;2024-02-16T05:16:27;9.98;;;3.70;;
52432;SDS011;38352;53.244;6.594;2024-02-16T05:18:54;7.63;;;4.05;;
52432;SDS011;38352;53.244;6.594;2024-02-16T05:21:21;5.97;;;3.53;;
52432;SDS011;38352;53.244;6.594;2024-02-16T05:23:47;8.90;;;4.03;;
52432;SDS011;38352;53.244;6.594;2024-02-16T05:26:13;6.72;;;4.38;;
52432;SDS011;38352;53.244;6.594;2024-02-16T05:28:39;7.63;;;4.13;;
52432;SDS011;38352;53.244;6.594;2024-02-16T05:31:18;8.45;;;4.30;;
52432;SDS011;38352;53.244;6.594;2024-02-16T05:33:46;10.30;;;3.70;;
52432;SDS011;38352;53.244;6.594;2024-02-16T05:36:15;6.47;;;3.38;;
52432;SDS011;38352;53.244;6.594;2024-02-16T05:38:43;7.15;;;3.67;;
52432;SDS011;38352;53.244;6.594;2024-02-16T05:41:09;8.35;;;4.15;;
52432;SDS011;38352;53.244;6.594;2024-02-16T05:43:36;6.65;;;3.70;;
52432;SDS011;38352;53.244;6.594;2024-02-16T05:46:05;5.72;;;3.55;;
52432;SDS011;38352;53.244;6.594;2024-02-16T05:48:35;5.40;;;3.28;;
52432;SDS011;38352;53.244;6.594;2024-02-16T05:51:05;10.67;;;3.97;;
52432;SDS011;38352;53.244;6.594;2024-02-16T05:53:31;8.63;;;3.70;;
52432;SDS011;38352;53.244;6.594;2024-02-16T05:55:58;7.03;;;3.90;;
52432;SDS011;38352;53.244;6.594;2024-02-16T05:58:25;6.78;;;3.72;;
52432;SDS011;38352;53.244;6.594;2024-02-16T06:00:51;8.10;;;3.50;;
52432;SDS011;38352;53.244;6.594;2024-02-16T06:03:17;8.52;;;3.53;;
52432;SDS011;38352;53.244;6.594;2024-02-16T06:05:43;7.50;;;3.90;;
52432;SDS011;38352;53.244;6.594;2024-02-16T06:08:12;8.05;;;4.13;;
52432;SDS011;38352;53.244;6.594;2024-02-16T06:10:40;8.10;;;3.70;;
52432;SDS011;38352;53.244;6.594;2024-02-16T06:13:07;8.05;;;4.07;;
52432;SDS011;38352;53.244;6.594;2024-02-16T06:15:33;7.57;;;3.70;;
52432;SDS011;38352;53.244;6.594;2024-02-16T06:18:00;6.18;;;3.72;;
52432;SDS011;38352;53.244;6.594;2024-02-16T06:20:27;9.82;;;4.20;;
52432;SDS011;38352;53.244;6.594;2024-02-16T06:22:53;7.88;;;3.78;;
52432;SDS011;38352;53.244;6.594;2024-02-16T06:25:19;8.27;;;4.50;;
52432;SDS011;38352;53.244;6.594;2024-02-16T06:27:45;8.10;;;4.05;;
52432;SDS011;38352;53.244;6.594;2024-02-16T06:30:12;6.82;;;4.00;;
52432;SDS011;38352;53.244;6.594;2024-02-16T06:32:38;8.32;;;3.60;;
52432;SDS011;38352;53.244;6.594;2024-02-16T06:35:06;7.30;;;3.67;;
52432;SDS011;38352;53.244;6.594;2024-02-16T06:37:32;8.90;;;3.80;;
52432;SDS011;38352;53.244;6.594;2024-02-16T06:39:58;12.90;;;3.92;;
52432;SDS011;38352;53.244;6.594;2024-02-16T06:42:25;11.95;;;3.95;;
52432;SDS011;38352;53.244;6.594;2024-02-16T06:44:51;8.02;;;3.95;;
52432;SDS011;38352;53.244;6.594;2024-02-16T06:47:17;6.68;;;3.47;;
52432;SDS011;38352;53.244;6.594;2024-02-16T06:49:43;9.50;;;3.47;;
52432;SDS011;38352;53.244;6.594;2024-02-16T06:52:11;11.13;;;4.00;;
52432;SDS011;38352;53.244;6.594;2024-02-16T06:54:37;8.45;;;3.45;;
52432;SDS011;38352;53.244;6.594;2024-02-16T06:57:03;7.65;;;3.85;;
52432;SDS011;38352;53.244;6.594;2024-02-16T06:59:30;8.18;;;3.63;;
52432;SDS011;38352;53.244;6.594;2024-02-16T07:01:56;8.35;;;3.63;;
52432;SDS011;38352;53.244;6.594;2024-02-16T07:04:23;6.65;;;3.58;;
52432;SDS011;38352;53.244;6.594;2024-02-16T07:06:49;8.15;;;3.90;;
52432;SDS011;38352;53.244;6.594;2024-02-16T07:09:15;6.60;;;3.72;;
52432;SDS011;38352;53.244;6.594;2024-02-16T07:11:41;6.75;;;3.60;;
52432;SDS011;38352;53.244;6.594;2024-02-16T07:14:11;6.40;;;3.63;;
52432;SDS011;38352;53.244;6.594;2024-02-16T07:16:38;7.30;;;3.92;;
52432;SDS011;38352;53.244;6.594;2024-02-16T07:19:04;7.57;;;3.90;;
52432;SDS011;38352;53.244;6.594;2024-02-16T07:21:30;6.97;;;4.20;;
52432;SDS011;38352;53.244;6.594;2024-02-16T07:23:56;8.38;;;3.83;;
52432;SDS011;38352;53.244;6.594;2024-02-16T07:26:22;8.05;;;4.15;;
52432;SDS011;38352;53.244;6.594;2024-02-16T07:28:48;7.68;;;3.90;;
52432;SDS011;38352;53.244;6.594;2024-02-16T07:31:14;7.90;;;4.05;;
52432;SDS011;38352;53.244;6.594;2024-02-16T07:33:41;8.68;;;4.18;;
52432;SDS011;38352;53.244;6.594;2024-02-16T07:36:07;7.78;;;4.03;;
52432;SDS011;38352;53.244;6.594;2024-02-16T07:38:33;7.72;;;4.13;;
52432;SDS011;38352;53.244;6.594;2024-02-16T07:41:00;10.07;;;4.20;;
52432;SDS011;38352;53.244;6.594;2024-02-16T07:43:27;8.48;;;3.95;;
52432;SDS011;38352;53.244;6.594;2024-02-16T07:45:53;7.72;;;4.70;;
52432;SDS011;38352;53.244;6.594;2024-02-16T07:48:20;7.72;;;4.35;;
52432;SDS011;38352;53.244;6.594;2024-02-16T07:50:46;8.07;;;3.95;;
52432;SDS011;38352;53.244;6.594;2024-02-16T07:53:13;7.55;;;4.13;;
52432;SDS011;38352;53.244;6.594;2024-02-16T07:55:39;8.20;;;4.30;;
52432;SDS011;38352;53.244;6.594;2024-02-16T07:58:05;9.00;;;3.92;;
52432;SDS011;38352;53.244;6.594;2024-02-16T08:00:31;9.23;;;3.92;;
52432;SDS011;38352;53.244;6.594;2024-02-16T08:02:57;7.50;;;4.15;;
52432;SDS011;38352;53.244;6.594;2024-02-16T08:05:23;7.82;;;3.75;;
52432;SDS011;38352;53.244;6.594;2024-02-16T08:07:51;8.25;;;3.85;;
52432;SDS011;38352;53.244;6.594;2024-02-16T08:10:19;7.03;;;3.67;;
52432;SDS011;38352;53.244;6.594;2024-02-16T08:12:50;7.82;;;4.30;;
52432;SDS011;38352;53.244;6.594;2024-02-16T08:15:16;8.57;;;4.45;;
52432;SDS011;38352;53.244;6.594;2024-02-16T08:17:48;7.72;;;3.75;;
52432;SDS011;38352;53.244;6.594;2024-02-16T08:20:14;6.80;;;4.03;;
52432;SDS011;38352;53.244;6.594;2024-02-16T08:22:40;7.47;;;4.00;;
52432;SDS011;38352;53.244;6.594;2024-02-16T08:25:07;6.38;;;4.10;;
52432;SDS011;38352;53.244;6.594;2024-02-16T08:27:33;8.07;;;4.30;;
52432;SDS011;38352;53.244;6.594;2024-02-16T08:29:59;6.50;;;3.90;;
52432;SDS011;38352;53.244;6.594;2024-02-16T08:32:27;8.85;;;4.38;;
52432;SDS011;38352;53.244;6.594;2024-02-16T08:34:53;9.15;;;5.20;;
52432;SDS011;38352;53.244;6.594;2024-02-16T08:37:21;8.70;;;4.50;;
52432;SDS011;38352;53.244;6.594;2024-02-16T08:39:47;8.45;;;4.60;;
52432;SDS011;38352;53.244;6.594;2024-02-16T08:42:13;7.45;;;4.50;;
52432;SDS011;38352;53.244;6.594;2024-02-16T08:44:40;9.38;;;4.22;;
52432;SDS011;38352;53.244;6.594;2024-02-16T08:47:07;9.27;;;4.05;;
52432;SDS011;38352;53.244;6.594;2024-02-16T08:49:34;11.07;;;5.22;;
52432;SDS011;38352;53.244;6.594;2024-02-16T08:52:00;8.95;;;4.55;;
52432;SDS011;38352;53.244;6.594;2024-02-16T08:54:26;8.77;;;4.75;;
52432;SDS011;38352;53.244;6.594;2024-02-16T08:56:53;8.65;;;4.68;;
52432;SDS011;38352;53.244;6.594;2024-02-16T08:59:19;6.82;;;4.18;;
52432;SDS011;38352;53.244;6.594;2024-02-16T09:01:46;8.43;;;4.13;;
52432;SDS011;38352;53.244;6.594;2024-02-16T09:04:12;11.80;;;5.00;;
52432;SDS011;38352;53.244;6.594;2024-02-16T09:06:38;9.20;;;4.93;;
52432;SDS011;38352;53.244;6.594;2024-02-16T09:09:04;12.00;;;4.82;;
52432;SDS011;38352;53.244;6.594;2024-02-16T09:11:32;9.55;;;4.60;;
52432;SDS011;38352;53.244;6.594;2024-02-16T09:14:01;7.90;;;4.68;;
52432;SDS011;38352;53.244;6.594;2024-02-16T09:16:28;8.45;;;4.20;;
52432;SDS011;38352;53.244;6.594;2024-02-16T09:18:55;13.88;;;4.80;;
52432;SDS011;38352;53.244;6.594;2024-02-16T09:21:21;7.72;;;4.30;;
52432;SDS011;38352;53.244;6.594;2024-02-16T09:23:52;8.40;;;4.60;;
52432;SDS011;38352;53.244;6.594;2024-02-16T09:26:18;8.63;;;4.60;;
52432;SDS011;38352;53.244;6.594;2024-02-16T09:28:44;8.32;;;5.05;;
52432;SDS011;38352;53.244;6.594;2024-02-16T09:31:13;8.13;;;4.70;;
52432;SDS011;38352;53.244;6.594;2024-02-16T09:33:40;8.07;;;4.90;;
52432;SDS011;38352;53.244;6.594;2024-02-16T09:36:06;10.45;;;5.47;;
52432;SDS011;38352;53.244;6.594;2024-02-16T09:38:32;10.98;;;5.00;;
52432;SDS011;38352;53.244;6.594;2024-02-16T09:40:58;11.20;;;5.05;;
52432;SDS011;38352;53.244;6.594;2024-02-16T09:43:25;11.93;;;5.38;;
52432;SDS011;38352;53.244;6.594;2024-02-16T09:45:52;9.40;;;5.55;;
52432;SDS011;38352;53.244;6.594;2024-02-16T09:48:18;8.90;;;4.97;;
52432;SDS011;38352;53.244;6.594;2024-02-16T09:50:45;7.88;;;5.18;;
52432;SDS011;38352;53.244;6.594;2024-02-16T09:53:11;12.52;;;5.47;;
52432;SDS011;38352;53.244;6.594;2024-02-16T09:55:37;11.88;;;5.28;;
52432;SDS011;38352;53.244;6.594;2024-02-16T09:58:03;11.38;;;5.53;;
52432;SDS011;38352;53.244;6.594;2024-02-16T10:00:30;9.07;;;5.18;;
52432;SDS011;38352;53.244;6.594;2024-02-16T10:02:57;10.50;;;5.18;;
52432;SDS011;38352;53.244;6.594;2024-02-16T10:05:23;8.88;;;5.40;;
52432;SDS011;38352;53.244;6.594;2024-02-16T10:07:49;10.30;;;5.78;;
52432;SDS011;38352;53.244;6.594;2024-02-16T10:12:47;10.60;;;5.95;;
52432;SDS011;38352;53.244;6.594;2024-02-16T10:15:20;11.63;;;6.20;;
52432;SDS011;38352;53.244;6.594;2024-02-16T10:18:02;9.38;;;5.63;;
52432;SDS011;38352;53.244;6.594;2024-02-16T10:20:29;12.55;;;5.70;;
52432;SDS011;38352;53.244;6.594;2024-02-16T10:23:04;9.90;;;5.82;;
52432;SDS011;38352;53.244;6.594;2024-02-16T10:25:31;9.57;;;5.63;;
52432;SDS011;38352;53.244;6.594;2024-02-16T10:27:57;10.05;;;6.40;;
52432;SDS011;38352;53.244;6.594;2024-02-16T10:30:30;10.75;;;5.45;;
52432;SDS011;38352;53.244;6.594;2024-02-16T10:32:57;11.73;;;6.43;;
52432;SDS011;38352;53.244;6.594;2024-02-16T10:35:24;12.50;;;6.15;;
52432;SDS011;38352;53.244;6.594;2024-02-16T10:37:51;10.95;;;6.43;;
52432;SDS011;38352;53.244;6.594;2024-02-16T10:40:19;13.27;;;7.00;;
52432;SDS011;38352;53.244;6.594;2024-02-16T10:42:46;9.48;;;6.85;;
52432;SDS011;38352;53.244;6.594;2024-02-16T10:45:13;10.45;;;7.18;;
52432;SDS011;38352;53.244;6.594;2024-02-16T10:47:39;14.15;;;7.32;;
52432;SDS011;38352;53.244;6.594;2024-02-16T10:50:06;13.00;;;7.45;;
52432;SDS011;38352;53.244;6.594;2024-02-16T10:52:34;11.82;;;7.40;;
52432;SDS011;38352;53.244;6.594;2024-02-16T10:55:02;14.80;;;7.55;;
52432;SDS011;38352;53.244;6.594;2024-02-16T10:57:30;15.18;;;7.47;;
52432;SDS011;38352;53.244;6.594;2024-02-16T10:59:58;13.35;;;7.95;;
52432;SDS011;38352;53.244;6.594;2024-02-16T11:02:25;13.57;;;8.18;;
52432;SDS011;38352;53.244;6.594;2024-02-16T11:04:52;15.35;;;8.77;;
52432;SDS011;38352;53.244;6.594;2024-02-16T11:07:19;16.23;;;9.48;;
52432;SDS011;38352;53.244;6.594;2024-02-16T11:09:45;12.82;;;8.48;;
52432;SDS011;38352;53.244;6.594;2024-02-16T11:12:13;16.65;;;9.02;;
52432;SDS011;38352;53.244;6.594;2024-02-16T11:14:43;12.75;;;9.10;;
52432;SDS011;38352;53.244;6.594;2024-02-16T11:19:35;20.33;;;11.23;;
52432;SDS011;38352;53.244;6.594;2024-02-16T11:22:05;22.50;;;11.30;;
52432;SDS011;38352;53.244;6.594;2024-02-16T11:24:33;24.20;;;12.05;;
52432;SDS011;38352;53.244;6.594;2024-02-16T11:27:03;20.70;;;12.73;;
52432;SDS011;38352;53.244;6.594;2024-02-16T11:29:39;21.83;;;11.98;;
52432;SDS011;38352;53.244;6.594;2024-02-16T11:32:06;25.25;;;12.55;;
52432;SDS011;38352;53.244;6.594;2024-02-16T11:34:32;23.15;;;12.50;;
52432;SDS011;38352;53.244;6.594;2024-02-16T11:36:59;25.73;;;13.00;;
52432;SDS011;38352;53.244;6.594;2024-02-16T11:39:25;22.33;;;11.38;;
52432;SDS011;38352;53.244;6.594;2024-02-16T11:41:58;23.88;;;13.73;;
52432;SDS011;38352;53.244;6.594;2024-02-16T11:44:26;27.40;;;13.95;;
52432;SDS011;38352;53.244;6.594;2024-02-16T11:46:53;24.33;;;13.43;;
52432;SDS011;38352;53.244;6.594;2024-02-16T11:49:19;21.60;;;12.27;;
52432;SDS011;38352;53.244;6.594;2024-02-16T11:51:45;18.95;;;11.25;;
52432;SDS011;38352;53.244;6.594;2024-02-16T11:54:11;23.70;;;11.90;;
52432;SDS011;38352;53.244;6.594;2024-02-16T11:56:37;19.60;;;11.25;;
52432;SDS011;38352;53.244;6.594;2024-02-16T11:59:05;20.42;;;12.18;;
52432;SDS011;38352;53.244;6.594;2024-02-16T12:01:32;22.67;;;12.20;;
52432;SDS011;38352;53.244;6.594;2024-02-16T12:03:59;20.88;;;11.60;;
52432;SDS011;38352;53.244;6.594;2024-02-16T12:06:25;17.77;;;10.25;;
52432;SDS011;38352;53.244;6.594;2024-02-16T12:08:51;22.13;;;12.80;;
52432;SDS011;38352;53.244;6.594;2024-02-16T12:11:18;17.60;;;11.40;;
52432;SDS011;38352;53.244;6.594;2024-02-16T12:13:44;19.25;;;10.48;;
52432;SDS011;38352;53.244;6.594;2024-02-16T12:16:11;20.63;;;10.68;;
52432;SDS011;38352;53.244;6.594;2024-02-16T12:18:37;17.73;;;10.63;;
52432;SDS011;38352;53.244;6.594;2024-02-16T12:23:35;19.83;;;10.63;;
52432;SDS011;38352;53.244;6.594;2024-02-16T12:26:02;21.60;;;10.18;;
52432;SDS011;38352;53.244;6.594;2024-02-16T12:28:30;18.08;;;8.90;;
52432;SDS011;38352;53.244;6.594;2024-02-16T12:30:59;18.05;;;9.35;;
52432;SDS011;38352;53.244;6.594;2024-02-16T12:33:25;17.42;;;8.55;;
52432;SDS011;38352;53.244;6.594;2024-02-16T12:35:52;14.13;;;7.82;;
52432;SDS011;38352;53.244;6.594;2024-02-16T12:38:19;16.02;;;8.35;;
52432;SDS011;38352;53.244;6.594;2024-02-16T12:40:54;13.63;;;8.48;;
52432;SDS011;38352;53.244;6.594;2024-02-16T12:43:20;16.05;;;8.40;;
52432;SDS011;38352;53.244;6.594;2024-02-16T12:45:46;17.65;;;8.80;;
52432;SDS011;38352;53.244;6.594;2024-02-16T12:48:12;13.75;;;8.35;;
52432;SDS011;38352;53.244;6.594;2024-02-16T12:50:39;14.88;;;8.55;;
52432;SDS011;38352;53.244;6.594;2024-02-16T12:53:07;17.27;;;8.93;;
52432;SDS011;38352;53.244;6.594;2024-02-16T12:55:33;15.77;;;8.82;;
52432;SDS011;38352;53.244;6.594;2024-02-16T12:57:59;13.55;;;7.95;;
52432;SDS011;38352;53.244;6.594;2024-02-16T13:00:25;12.50;;;6.70;;
52432;SDS011;38352;53.244;6.594;2024-02-16T13:02:51;12.05;;;7.20;;
52432;SDS011;38352;53.244;6.594;2024-02-16T13:05:17;10.85;;;7.05;;
52432;SDS011;38352;53.244;6.594;2024-02-16T13:07:43;17.95;;;7.43;;
52432;SDS011;38352;53.244;6.594;2024-02-16T13:10:09;12.90;;;6.20;;
52432;SDS011;38352;53.244;6.594;2024-02-16T13:12:37;10.68;;;6.63;;
52432;SDS011;38352;53.244;6.594;2024-02-16T13:15:06;11.52;;;6.53;;
52432;SDS011;38352;53.244;6.594;2024-02-16T13:17:33;8.70;;;5.80;;
52432;SDS011;38352;53.244;6.594;2024-02-16T13:20:01;9.10;;;6.05;;
52432;SDS011;38352;53.244;6.594;2024-02-16T13:22:37;9.32;;;5.57;;
52432;SDS011;38352;53.244;6.594;2024-02-16T13:25:04;10.20;;;5.57;;
52432;SDS011;38352;53.244;6.594;2024-02-16T13:27:33;9.13;;;5.47;;
52432;SDS011;38352;53.244;6.594;2024-02-16T13:30:00;8.43;;;4.90;;
52432;SDS011;38352;53.244;6.594;2024-02-16T13:32:26;8.88;;;4.72;;
52432;SDS011;38352;53.244;6.594;2024-02-16T13:34:52;8.98;;;5.13;;
52432;SDS011;38352;53.244;6.594;2024-02-16T13:37:19;6.78;;;3.83;;
52432;SDS011;38352;53.244;6.594;2024-02-16T13:39:46;6.50;;;3.70;;
52432;SDS011;38352;53.244;6.594;2024-02-16T13:42:12;7.25;;;3.33;;
52432;SDS011;38352;53.244;6.594;2024-02-16T13:44:39;6.30;;;3.50;;
52432;SDS011;38352;53.244;6.594;2024-02-16T13:47:05;5.07;;;3.28;;
52432;SDS011;38352;53.244;6.594;2024-02-16T13:49:31;6.13;;;3.40;;
52432;SDS011;38352;53.244;6.594;2024-02-16T13:51:57;7.47;;;3.58;;
52432;SDS011;38352;53.244;6.594;2024-02-16T13:54:27;6.15;;;3.35;;
52432;SDS011;38352;53.244;6.594;2024-02-16T13:56:53;5.80;;;3.88;;
52432;SDS011;38352;53.244;6.594;2024-02-16T13:59:19;7.32;;;3.65;;
52432;SDS011;38352;53.244;6.594;2024-02-16T14:01:45;6.10;;;2.85;;
52432;SDS011;38352;53.244;6.594;2024-02-16T14:04:11;8.27;;;3.65;;
52432;SDS011;38352;53.244;6.594;2024-02-16T14:06:39;6.47;;;3.90;;
52432;SDS011;38352;53.244;6.594;2024-02-16T14:09:05;8.57;;;4.78;;
52432;SDS011;38352;53.244;6.594;2024-02-16T14:11:37;9.77;;;4.18;;
52432;SDS011;38352;53.244;6.594;2024-02-16T14:14:03;8.02;;;4.53;;
52432;SDS011;38352;53.244;6.594;2024-02-16T14:16:30;8.40;;;4.07;;
52432;SDS011;38352;53.244;6.594;2024-02-16T14:18:57;8.52;;;3.92;;
52432;SDS011;38352;53.244;6.594;2024-02-16T14:21:23;8.38;;;4.70;;
52432;SDS011;38352;53.244;6.594;2024-02-16T14:23:49;9.93;;;4.55;;
52432;SDS011;38352;53.244;6.594;2024-02-16T14:26:15;8.00;;;4.57;;
52432;SDS011;38352;53.244;6.594;2024-02-16T14:28:42;7.60;;;4.80;;
52432;SDS011;38352;53.244;6.594;2024-02-16T14:31:08;9.07;;;4.57;;
52432;SDS011;38352;53.244;6.594;2024-02-16T14:33:35;9.77;;;5.00;;
52432;SDS011;38352;53.244;6.594;2024-02-16T14:36:01;8.18;;;4.68;;
52432;SDS011;38352;53.244;6.594;2024-02-16T14:38:28;9.35;;;5.10;;
52432;SDS011;38352;53.244;6.594;2024-02-16T14:40:54;7.97;;;4.63;;
52432;SDS011;38352;53.244;6.594;2024-02-16T14:43:20;9.27;;;4.78;;
52432;SDS011;38352;53.244;6.594;2024-02-16T14:45:46;12.70;;;4.82;;
52432;SDS011;38352;53.244;6.594;2024-02-16T14:48:12;10.45;;;5.00;;